createdAt,value
2022-08-05T00:00:18.467Z,30.07
2022-08-05T00:02:51.329Z,30.14
2022-08-05T00:06:01.666Z,30.38
2022-08-05T00:08:33.024Z,30.54
2022-08-05T00:10:52.650Z,30.63
2022-08-05T00:13:19.791Z,30.74
2022-08-05T00:15:58.024Z,30.90
2022-08-05T00:18:25.765Z,31.02
2022-08-05T00:20:55.230Z,31.11
2022-08-05T00:23:44.651Z,31.08
2022-08-05T00:26:09.745Z,31.02
2022-08-05T00:28:36.746Z,31.01
2022-08-05T00:31:04.629Z,31.08
2022-08-05T00:34:56.202Z,30.80
2022-08-05T00:37:10.690Z,30.78
2022-08-05T00:39:13.397Z,30.86
2022-08-05T00:41:52.188Z,30.74
2022-08-05T00:44:23.343Z,30.85
2022-08-05T00:47:01.837Z,30.82
2022-08-05T00:49:32.815Z,30.83
2022-08-05T00:52:10.941Z,30.79
2022-08-05T00:54:38.609Z,30.66
2022-08-05T00:57:05.120Z,30.67
2022-08-05T00:59:42.028Z,30.67
2022-08-05T01:02:11.362Z,30.49
2022-08-05T01:04:37.835Z,30.49
2022-08-05T01:07:13.713Z,30.52
2022-08-05T01:09:40.821Z,30.47
2022-08-05T01:12:18.146Z,30.40
2022-08-05T01:14:59.364Z,30.29
2022-08-05T01:17:53.670Z,30.34
2022-08-05T01:20:39.425Z,30.28
2022-08-05T01:23:43.822Z,30.21
2022-08-05T01:26:40.312Z,30.17
2022-08-05T01:29:34.968Z,30.13
2022-08-05T01:32:06.329Z,30.19
2022-08-05T01:34:45.725Z,30.18
2022-08-05T01:37:25.260Z,30.20
2022-08-05T01:39:58.911Z,30.13
2022-08-05T01:42:29.638Z,30.20
2022-08-05T01:45:00.290Z,30.22
2022-08-05T01:47:39.537Z,30.15
2022-08-05T01:50:15.725Z,30.17
2022-08-05T01:52:49.621Z,30.11
2022-08-05T01:55:20.403Z,30.10
2022-08-05T01:58:11.343Z,30.19
2022-08-05T02:00:41.520Z,30.14
2022-08-05T02:03:24.247Z,30.17
2022-08-05T02:05:59.795Z,30.22
2022-08-05T02:08:30.759Z,30.24
2022-08-05T02:11:08.226Z,30.18
2022-08-05T02:13:53.753Z,30.23
2022-08-05T02:16:38.786Z,30.14
2022-08-05T02:19:15.964Z,30.12
2022-08-05T02:21:54.104Z,29.99
2022-08-05T02:24:27.435Z,29.82
2022-08-05T02:27:09.984Z,29.43
2022-08-05T02:29:58.921Z,29.49
2022-08-05T02:32:31.630Z,29.42
2022-08-05T02:35:13.674Z,29.67
2022-08-05T02:37:47.634Z,29.69
2022-08-05T02:40:21.300Z,29.72
2022-08-05T02:42:52.972Z,29.85
2022-08-05T02:45:24.108Z,29.81
2022-08-05T02:48:07.341Z,29.89
2022-08-05T02:50:42.107Z,29.96
2022-08-05T02:53:18.955Z,29.90
2022-08-05T02:55:52.133Z,29.95
2022-08-05T02:58:27.461Z,29.94
2022-08-05T03:00:58.625Z,29.71
2022-08-05T03:03:33.923Z,29.84
2022-08-05T03:06:55.566Z,29.78
2022-08-05T03:09:04.556Z,29.88
2022-08-05T03:11:56.372Z,29.88
2022-08-05T03:14:17.644Z,29.88
2022-08-05T03:16:44.154Z,29.92
2022-08-05T03:19:16.855Z,29.94
2022-08-05T03:21:57.060Z,29.73
2022-08-05T03:24:29.824Z,29.87
2022-08-05T03:26:56.924Z,29.89
2022-08-05T03:29:24.205Z,29.93
2022-08-05T03:32:11.177Z,29.86
2022-08-05T03:34:38.245Z,29.78
2022-08-05T03:37:06.346Z,29.86
2022-08-05T03:39:38.136Z,29.71
2022-08-05T03:42:13.703Z,29.82
2022-08-05T03:44:42.358Z,29.77
2022-08-05T03:47:08.665Z,29.73
2022-08-05T03:49:51.469Z,29.76
2022-08-05T03:52:39.331Z,29.75
2022-08-05T03:56:04.782Z,29.70
2022-08-05T03:58:12.164Z,29.83
2022-08-05T04:00:42.074Z,29.79
2022-08-05T04:03:15.021Z,29.79
2022-08-05T04:05:54.804Z,29.74
2022-08-05T04:08:35.033Z,29.73
2022-08-05T04:11:06.675Z,29.76
2022-08-05T04:13:55.237Z,29.56
2022-08-05T04:16:25.112Z,29.74
2022-08-05T04:18:57.930Z,29.68
2022-08-05T04:22:10.247Z,29.61
2022-08-05T04:24:14.232Z,29.73
2022-08-05T04:26:46.714Z,29.62
2022-08-05T04:29:13.265Z,29.51
2022-08-05T04:31:40.691Z,29.46
2022-08-05T04:34:19.047Z,29.35
2022-08-05T04:36:53.471Z,29.22
2022-08-05T04:39:20.576Z,29.32
2022-08-05T04:41:48.454Z,29.35
2022-08-05T04:44:16.145Z,29.44
2022-08-05T04:46:48.479Z,29.49
2022-08-05T04:49:15.214Z,29.49
2022-08-05T04:51:43.630Z,29.52
2022-08-05T04:54:10.174Z,29.46
2022-08-05T04:56:38.403Z,29.44
2022-08-05T04:59:21.737Z,29.43
2022-08-05T05:02:35.101Z,29.46
2022-08-05T05:04:43.758Z,29.49
2022-08-05T05:07:10.716Z,29.45
2022-08-05T05:09:37.433Z,29.21
2022-08-05T05:12:06.294Z,29.19
2022-08-05T05:14:36.246Z,29.19
2022-08-05T05:17:03.389Z,29.32
2022-08-05T05:19:36.918Z,29.12
2022-08-05T05:22:24.031Z,29.22
2022-08-05T05:24:57.572Z,29.38
2022-08-05T05:27:45.349Z,29.34
2022-08-05T05:30:31.108Z,29.14
2022-08-05T05:33:08.864Z,29.16
2022-08-05T05:35:44.452Z,28.97
2022-08-05T05:38:13.146Z,28.83
2022-08-05T05:40:48.328Z,28.99
2022-08-05T05:43:21.882Z,28.98
2022-08-05T05:46:05.137Z,29.09
2022-08-05T05:48:34.581Z,29.14
2022-08-05T05:51:14.993Z,29.27
2022-08-05T05:53:54.362Z,29.34
2022-08-05T05:56:32.862Z,29.61
2022-08-05T05:59:03.614Z,29.63
2022-08-05T06:01:37.170Z,29.73
2022-08-05T06:04:11.403Z,29.66
2022-08-05T06:06:41.978Z,29.75
2022-08-05T06:09:09.514Z,29.78
2022-08-05T06:11:48.854Z,29.83
2022-08-05T06:14:27.998Z,29.80
2022-08-05T06:16:55.246Z,29.89
2022-08-05T06:19:26.107Z,30.04
2022-08-05T06:22:01.999Z,29.89
2022-08-05T06:24:28.335Z,30.04
2022-08-05T06:26:55.481Z,29.99
2022-08-05T06:29:43.194Z,29.91
2022-08-05T06:32:25.609Z,30.16
2022-08-05T06:34:57.241Z,30.18
2022-08-05T06:37:56.894Z,30.14
2022-08-05T06:40:12.879Z,30.39
2022-08-05T06:42:40.559Z,30.45
2022-08-05T06:45:08.505Z,30.58
2022-08-05T06:48:36.901Z,30.76
2022-08-05T06:50:22.573Z,30.74
2022-08-05T06:52:58.742Z,30.95
2022-08-05T06:55:36.154Z,31.06
2022-08-05T06:58:29.049Z,30.88
2022-08-05T07:00:49.928Z,31.13
2022-08-05T07:03:17.082Z,30.97
2022-08-05T07:05:43.873Z,31.11
2022-08-05T07:08:12.651Z,31.30
2022-08-05T07:10:39.798Z,31.48
2022-08-05T07:13:58.303Z,31.42
2022-08-05T07:16:07.045Z,31.70
2022-08-05T07:18:38.449Z,31.73
2022-08-05T07:21:14.158Z,31.89
2022-08-05T07:32:11.875Z,31.20
2022-08-05T07:34:42.482Z,31.27
2022-08-05T07:37:11.749Z,31.40
2022-08-05T07:40:04.759Z,31.48
2022-08-05T07:42:33.490Z,31.25
2022-08-05T07:45:00.710Z,31.15
2022-08-05T07:47:27.133Z,31.00
2022-08-05T07:50:10.039Z,30.72
2022-08-05T07:52:43.589Z,30.86
2022-08-05T07:55:44.526Z,31.17
2022-08-05T07:58:03.090Z,31.02
2022-08-05T08:00:30.535Z,31.05
2022-08-05T08:03:15.033Z,31.19
2022-08-05T08:05:49.680Z,31.41
2022-08-05T08:08:17.041Z,31.51
2022-08-05T08:10:48.722Z,31.66
2022-08-05T08:13:15.574Z,31.50
2022-08-05T08:16:34.309Z,31.62
2022-08-05T08:18:35.060Z,31.78
2022-08-05T08:21:09.835Z,31.87
2022-08-05T08:24:01.606Z,31.85
2022-08-05T08:26:29.906Z,31.75
2022-08-05T08:29:02.086Z,31.99
2022-08-05T08:31:36.143Z,31.73
2022-08-05T08:34:02.748Z,31.82
2022-08-05T08:36:47.642Z,32.05
2022-08-05T08:39:19.498Z,32.11
2022-08-05T08:41:52.086Z,32.01
2022-08-05T08:45:16.608Z,32.24
2022-08-05T08:48:05.651Z,32.37
2022-08-05T08:50:30.651Z,32.44
2022-08-05T08:53:08.142Z,32.36
2022-08-05T08:56:04.459Z,32.18
2022-08-05T08:58:37.609Z,32.45
2022-08-05T09:01:17.255Z,32.55
2022-08-05T09:03:55.402Z,32.70
2022-08-05T09:06:29.288Z,32.76
2022-08-05T09:08:58.479Z,32.85
2022-08-05T09:11:51.202Z,32.92
2022-08-05T09:14:58.480Z,32.84
2022-08-05T09:17:00.206Z,32.63
2022-08-05T09:19:27.832Z,32.99
2022-08-05T09:22:23.171Z,32.74
2022-08-05T09:25:13.704Z,32.77
2022-08-05T09:28:03.934Z,33.09
2022-08-05T09:30:34.468Z,32.78
2022-08-05T09:33:04.803Z,32.96
2022-08-05T09:35:31.754Z,32.90
2022-08-05T09:38:12.983Z,33.05
2022-08-05T09:40:53.687Z,33.01
2022-08-05T09:43:41.958Z,32.95
2022-08-05T09:46:27.257Z,33.10
2022-08-05T09:49:06.839Z,32.92
2022-08-05T09:51:48.851Z,32.94
2022-08-05T09:54:29.553Z,33.07
2022-08-05T09:56:57.673Z,33.17
2022-08-05T09:59:27.969Z,33.27
2022-08-05T10:01:57.983Z,33.40
2022-08-05T10:04:36.020Z,33.28
2022-08-05T10:07:14.107Z,33.41
2022-08-05T10:10:14.443Z,33.52
2022-08-05T10:12:49.496Z,33.62
2022-08-05T10:15:20.419Z,33.70
2022-08-05T10:18:11.772Z,33.52
2022-08-05T10:20:48.551Z,33.66
2022-08-05T10:23:34.277Z,33.63
2022-08-05T10:26:13.958Z,33.50
2022-08-05T10:28:43.368Z,33.59
2022-08-05T10:32:48.003Z,33.60
2022-08-05T10:34:01.009Z,33.60
2022-08-05T10:36:28.386Z,33.63
2022-08-05T10:39:05.041Z,33.59
2022-08-05T10:42:00.467Z,33.39
2022-08-05T10:44:29.244Z,33.22
2022-08-05T10:46:57.506Z,33.02
2022-08-05T10:49:27.414Z,33.31
2022-08-05T10:52:00.357Z,33.48
2022-08-05T10:55:02.511Z,33.53
2022-08-05T10:57:31.876Z,33.54
2022-08-05T11:00:22.858Z,33.55
2022-08-05T11:03:24.646Z,33.76
2022-08-05T11:06:15.048Z,33.70
2022-08-05T11:09:16.834Z,33.68
2022-08-05T11:11:53.646Z,33.86
2022-08-05T11:14:57.446Z,33.98
2022-08-05T11:17:59.654Z,34.07
2022-08-05T11:20:39.148Z,34.08
2022-08-05T11:23:33.712Z,34.09
2022-08-05T11:26:16.741Z,34.11
2022-08-05T11:28:58.065Z,34.20
2022-08-05T11:31:56.713Z,34.18
2022-08-05T11:34:39.555Z,34.25
2022-08-05T11:38:26.269Z,34.12
2022-08-05T11:40:00.536Z,34.03
2022-08-05T11:42:32.653Z,34.15
2022-08-05T11:45:14.329Z,33.80
2022-08-05T11:47:54.811Z,33.43
2022-08-05T11:50:21.644Z,33.73
2022-08-05T11:52:50.241Z,33.63
2022-08-05T11:55:18.527Z,33.84
2022-08-05T11:58:10.968Z,33.82
2022-08-05T12:00:38.363Z,34.07
2022-08-05T12:03:28.797Z,34.23
2022-08-05T12:06:06.160Z,34.45
2022-08-05T12:08:48.016Z,34.71
2022-08-05T12:11:40.229Z,34.80
2022-08-05T12:14:10.346Z,34.89
2022-08-05T12:16:45.514Z,34.88
2022-08-05T12:20:27.852Z,34.62
2022-08-05T12:22:01.525Z,34.25
2022-08-05T12:24:28.032Z,34.81
2022-08-05T12:26:54.732Z,35.14
2022-08-05T12:29:24.378Z,34.66
2022-08-05T12:31:54.335Z,34.46
2022-08-05T12:34:31.020Z,34.88
2022-08-05T12:37:03.287Z,34.46
2022-08-05T12:39:34.694Z,34.82
2022-08-05T12:42:16.132Z,35.02
2022-08-05T12:44:45.240Z,35.16
2022-08-05T12:47:28.816Z,35.38
2022-08-05T12:50:05.336Z,35.69
2022-08-05T12:52:39.167Z,35.29
2022-08-05T12:55:25.885Z,35.49
2022-08-05T12:58:50.751Z,35.83
2022-08-05T13:02:04.166Z,36.29
2022-08-05T13:03:34.325Z,36.31
2022-08-05T13:06:08.149Z,36.68
2022-08-05T13:08:38.798Z,36.73
2022-08-05T13:11:07.132Z,36.90
2022-08-05T13:14:05.398Z,37.04
2022-08-05T13:16:25.259Z,36.92
2022-08-05T13:18:57.892Z,36.87
2022-08-05T13:21:27.787Z,37.10
2022-08-05T13:23:55.636Z,37.23
2022-08-05T13:26:30.240Z,37.61
2022-08-05T13:28:57.146Z,39.13
2022-08-05T13:32:02.795Z,40.23
2022-08-05T13:34:21.274Z,41.26
2022-08-05T13:36:50.015Z,42.08
2022-08-05T13:39:24.443Z,42.38
2022-08-05T13:42:02.878Z,42.83
2022-08-05T13:44:29.363Z,43.51
2022-08-05T13:47:02.391Z,43.78
2022-08-05T13:49:35.271Z,43.63
2022-08-05T13:52:19.152Z,43.32
2022-08-05T13:54:57.287Z,42.99
2022-08-05T13:57:26.018Z,42.47
2022-08-05T14:00:12.523Z,42.55
2022-08-05T14:02:39.461Z,42.60
2022-08-05T14:05:05.949Z,42.84
2022-08-05T14:08:00.725Z,43.28
2022-08-05T14:10:28.208Z,43.57
2022-08-05T14:12:55.762Z,43.78
2022-08-05T14:16:07.267Z,44.25
2022-08-05T14:18:14.924Z,44.59
2022-08-05T14:20:46.927Z,44.76
2022-08-05T14:23:14.006Z,45.17
2022-08-05T14:25:47.467Z,45.34
2022-08-05T14:28:26.413Z,44.79
2022-08-05T14:30:54.373Z,44.89
2022-08-05T14:33:22.772Z,44.29
2022-08-05T14:35:52.094Z,44.11
2022-08-05T14:38:33.274Z,43.12
2022-08-05T14:41:05.997Z,41.81
2022-08-05T14:43:58.911Z,41.23
2022-08-05T14:46:21.003Z,40.49
2022-08-05T14:48:49.333Z,40.04
2022-08-05T14:51:17.679Z,39.49
2022-08-05T14:53:45.222Z,38.13
2022-08-05T14:56:31.633Z,37.36
2022-08-05T14:58:58.008Z,36.60
2022-08-05T15:01:48.573Z,34.40
2022-08-05T15:04:11.567Z,34.17
2022-08-05T15:09:52.462Z,33.54
2022-08-05T15:36:36.482Z,33.48
2022-08-05T16:12:15.127Z,33.72
2022-08-05T16:42:13.615Z,34.22
2022-08-05T16:48:07.950Z,34.56
2022-08-05T16:50:45.803Z,34.09
2022-08-05T16:53:22.840Z,33.72
2022-08-05T16:56:01.459Z,33.73
2022-08-05T16:58:28.990Z,33.53
2022-08-05T17:00:56.801Z,33.24
2022-08-05T17:03:25.830Z,33.20
2022-08-05T17:08:36.134Z,32.85
2022-08-05T17:11:16.974Z,32.77
2022-08-05T17:13:44.654Z,32.16
2022-08-05T17:16:33.702Z,31.98
2022-08-05T17:18:58.000Z,31.48
2022-08-05T17:21:24.317Z,31.05
2022-08-05T17:24:05.965Z,30.71
2022-08-05T17:26:38.377Z,30.64
2022-08-05T17:29:04.977Z,30.45
2022-08-05T17:31:41.504Z,30.49
2022-08-05T17:34:30.156Z,30.16
2022-08-05T17:36:59.719Z,30.13
2022-08-05T17:39:33.574Z,29.78
2022-08-05T17:42:19.608Z,29.66
2022-08-05T17:44:50.507Z,29.51
2022-08-05T17:47:22.116Z,29.76
2022-08-05T17:50:00.247Z,29.93
2022-08-05T17:52:34.211Z,30.15
2022-08-05T17:55:03.081Z,30.22
2022-08-05T17:57:29.832Z,30.52
2022-08-05T18:00:05.307Z,30.70
2022-08-05T18:02:33.251Z,30.84
2022-08-05T18:05:01.194Z,31.09
2022-08-05T18:07:40.975Z,30.63
2022-08-05T18:10:10.385Z,30.50
2022-08-05T18:12:37.235Z,30.55
2022-08-05T18:15:04.123Z,30.59
2022-08-05T18:18:00.281Z,30.48
2022-08-05T18:20:18.221Z,30.13
2022-08-05T18:22:54.686Z,29.44
2022-08-05T18:25:33.106Z,29.12
2022-08-05T18:27:59.947Z,29.46
2022-08-05T18:30:31.257Z,29.56
2022-08-05T18:33:00.865Z,29.74
2022-08-05T18:36:00.723Z,30.04
2022-08-05T18:38:19.123Z,29.98
2022-08-05T18:41:54.957Z,29.90
2022-08-05T18:43:42.564Z,30.09
2022-08-05T18:46:10.183Z,30.24
2022-08-05T18:48:41.852Z,29.84
2022-08-05T18:52:04.796Z,29.43
2022-08-05T18:53:55.784Z,28.76
2022-08-05T18:56:25.337Z,28.63
2022-08-05T18:58:54.805Z,28.35
2022-08-05T19:01:47.760Z,28.53
2022-08-05T19:04:14.525Z,28.81
2022-08-05T19:06:50.695Z,28.66
2022-08-05T19:09:17.160Z,28.67
2022-08-05T19:12:01.139Z,28.76
2022-08-05T19:14:53.434Z,28.88
2022-08-05T19:17:16.790Z,28.82
2022-08-05T19:19:46.500Z,28.50
2022-08-05T19:22:17.651Z,28.64
2022-08-05T19:24:54.509Z,28.26
2022-08-05T19:27:23.939Z,28.60
2022-08-05T19:29:50.560Z,28.89
2022-08-05T19:32:17.241Z,28.97
2022-08-05T19:34:55.011Z,28.61
2022-08-05T19:37:34.870Z,28.40
2022-08-05T19:40:10.670Z,28.30
2022-08-05T19:42:37.370Z,28.67
2022-08-05T19:45:06.775Z,28.39
2022-08-05T19:47:34.921Z,28.19
2022-08-05T19:50:06.214Z,28.51
2022-08-05T19:52:34.408Z,28.72
2022-08-05T19:55:06.754Z,28.87
2022-08-05T19:57:57.239Z,29.14
2022-08-05T20:00:25.450Z,28.95
2022-08-05T20:02:52.501Z,29.18
2022-08-05T20:05:24.456Z,29.11
2022-08-05T20:07:59.030Z,29.18
2022-08-05T20:10:31.284Z,29.40
2022-08-05T20:13:01.430Z,29.30
2022-08-05T20:15:52.702Z,29.06
2022-08-05T20:18:33.606Z,29.05
2022-08-05T20:21:01.185Z,29.37
2022-08-05T20:23:40.342Z,29.35
2022-08-05T20:26:16.105Z,29.13
2022-08-05T20:28:45.076Z,28.72
2022-08-05T20:31:16.522Z,28.27
2022-08-05T20:33:49.817Z,28.15
2022-08-05T20:36:19.181Z,27.99
2022-08-05T20:38:54.487Z,28.00
2022-08-05T20:41:43.931Z,28.03
2022-08-05T20:44:18.371Z,27.98
2022-08-05T20:46:50.455Z,27.81
2022-08-05T20:49:24.079Z,27.27
2022-08-05T20:51:54.132Z,27.42
2022-08-05T20:54:24.719Z,27.58
2022-08-05T20:56:54.477Z,27.36
2022-08-05T20:59:26.434Z,27.09
2022-08-05T21:01:57.352Z,27.33
2022-08-05T21:04:28.451Z,27.24
2022-08-05T21:06:58.346Z,27.03
2022-08-05T21:12:08.184Z,27.54
2022-08-05T21:14:38.309Z,27.65
2022-08-05T21:17:06.194Z,27.75
2022-08-05T21:19:46.916Z,27.68
2022-08-05T21:22:21.751Z,27.70
2022-08-05T21:24:54.909Z,27.91
2022-08-05T21:29:57.545Z,28.20
2022-08-05T21:41:06.168Z,28.09
2022-08-05T21:43:41.755Z,28.09
2022-08-05T21:46:08.826Z,28.04
2022-08-05T21:48:38.755Z,28.08
2022-08-05T21:52:15.358Z,27.90
2022-08-05T21:56:44.532Z,28.01
2022-08-05T21:59:24.262Z,28.04
2022-08-05T22:01:54.456Z,27.83
2022-08-05T22:04:25.237Z,28.00
2022-08-05T22:07:00.095Z,27.89
2022-08-05T22:09:45.884Z,27.91
2022-08-05T22:12:17.586Z,28.00
2022-08-05T22:17:59.946Z,27.91
2022-08-05T22:20:27.371Z,27.93
2022-08-05T22:22:55.650Z,27.90
2022-08-05T22:25:31.105Z,27.91
2022-08-05T22:28:13.761Z,27.99
2022-08-05T22:30:44.031Z,27.91
2022-08-05T22:33:57.633Z,27.94
2022-08-05T22:36:14.724Z,28.05
2022-08-05T22:38:43.382Z,28.11
2022-08-05T22:43:57.918Z,28.09
2022-08-05T22:46:25.860Z,28.10
2022-08-05T22:48:53.023Z,28.18
2022-08-05T22:54:08.543Z,28.14
2022-08-05T22:56:35.250Z,28.17
2022-08-05T22:59:45.191Z,27.70
2022-08-05T23:13:07.359Z,27.56
2022-08-05T23:18:16.015Z,27.68
2022-08-05T23:20:43.435Z,27.54
2022-08-05T23:23:10.182Z,27.55
2022-08-05T23:28:29.481Z,27.75
2022-08-05T23:31:07.042Z,27.81
2022-08-05T23:34:04.760Z,27.66
2022-08-05T23:36:38.512Z,27.70
2022-08-05T23:39:09.482Z,27.52
2022-08-05T23:41:41.094Z,27.68
2022-08-05T23:44:15.560Z,27.77
2022-08-05T23:46:46.032Z,27.72
2022-08-05T23:49:16.794Z,27.60
2022-08-05T23:51:53.414Z,27.66
2022-08-05T23:54:34.173Z,27.00
2022-08-05T23:57:05.885Z,26.98
2022-08-05T23:59:37.683Z,26.86
